Airfield :
LOGIN :

Register | Disclaimer

   EN    FR    IT 

 










Legend :    VFR   Marginal VFR   IFR   Intensive IFR   Very Intensive IFR
Visi :
Ceiling :
>= 8 km
>= 3000ft
5 to 8 km
1000 to 3000 ft
1500m to 5 km
500 to 1000 ft
800 to 1500m
200 to 500 ft
< 800m
< 200 ft
Symbols :   Thunderstorms  Fog  Heavy snow  Heavy precipitations  Wind > 20 kt
SIGMETs :     Misc.  Thunderstorms  Icing  Turbulence  Mountain Waves  Volcanic Ashes






- Airport Elevation : 1959 ft
- IATA code : HOQ


EDQM - Hof Plauen

CURRENT METAR :
  • 030820Z 24004KT 150V290 CAVOK 20/09 Q1008

EXPIRED METARs :
  • 030750Z VRB03KT CAVOK 19/09 Q1009
  • 030720Z VRB03KT CAVOK 19/09 Q1009
  • 030650Z VRB03KT CAVOK 18/09 Q1009
  • 030620Z 22006KT CAVOK 16/09 Q1009
  • 030550Z 00000KT CAVOK 16/08 Q1009
  • 030520Z 00000KT CAVOK 14/09 Q1009

TAF TAF EDQM
Valid from the 03 at 06:00 until the 03 at 15:00 UTC


030500Z 0306/0315 VRB02KT CAVOK
BECMG 0307/0309 24005KT
BECMG 0312/0314 06005KT
PROB30
TEMPO 0314/0315 30020G35KT TSRA BKN050CB



MET'MAP, your aeronautical weather chart ! - Copyright ORBIFLY December 2007 - Disclaimer

ORBIFLY MET'MAP TEAM :

Programming & Development : Alexandra Zaïnal
Concept & original design : Baudouin d'Aumeries
Assistance for programming : Marc-Olivier Méhu
Technical & hardware support : Manuel Goepfert

Contact : metmap@orbifly.com




SOURCES & CREDITS :

   NOAA